Bookmark and Share
Track history (hours):
 

Ningbo Seal

Last reported at 2014-Apr-13 02:33 UTC. Time now 2014-Apr-24 02:02 UTC.
Position N 26°23' E 056°05'.
Warning: this ship's position is 10 days out of date.

Length 224 m; draft 6.4 m.

Type: Cargo ship. MMSI: 477628100.

NotesDate/timePositionNaut miles runAvg speedWind from/ knotsBaromVisibWave heightAir tempDewpointWater temp
2014-Apr-13 02:33N 26°23' E 056°05'1414.4
2014-Apr-13 01:33N 26°17' E 055°50'1514.1
2014-Apr-13 00:29N 26°12' E 055°34'1613.5
2014-Apr-12 23:18N 26°06' E 055°18'1013.4
2014-Apr-12 22:33N 26°07' E 055°07'1313.3
2014-Apr-12 21:33N 26°09' E 054°52'1413.3
2014-Apr-12 20:32N 26°11' E 054°37'1313.1
2014-Apr-12 19:33N 26°12' E 054°23'1413.5
2014-Apr-12 18:33N 26°14' E 054°08'1413.7
2014-Apr-12 17:34N 26°15' E 053°53'1414.0
2014-Apr-12 16:34N 26°17' E 053°37'1513.8
2014-Apr-12 15:29N 26°24' E 053°22'1414.2
2014-Apr-12 14:29N 26°32' E 053°09'6512.8
2014-Apr-12 09:22N 26°59' E 052°03'7512.8
2014-Apr-12 03:33N 26°51' E 050°40'1312.7
2014-Apr-12 02:32N 26°45' E 050°27'  
2014-Apr-07 10:33N 26°30' E 050°12'0 0.0
2014-Apr-07 00:31N 26°30' E 050°12'0 0.0
2014-Apr-06 20:28N 26°30' E 050°12'0 0.0
2014-Apr-06 19:28N 26°30' E 050°12'0 0.0
2014-Apr-06 18:25N 26°30' E 050°12'0 0.0
2014-Apr-06 17:19N 26°30' E 050°12'  

Dump ship's entire track history

sailing weather and tide predictions

Ningbo Seal — VRJD3 — position and weather